createdAt,value
2022-11-04T00:02:06.268Z,87.32
2022-11-04T00:04:32.954Z,87.22
2022-11-04T00:06:59.529Z,87.09
2022-11-04T00:09:28.764Z,87.36
2022-11-04T00:12:14.199Z,87.57
2022-11-04T00:14:41.661Z,87.67
2022-11-04T00:17:22.361Z,87.59
2022-11-04T00:20:09.204Z,87.61
2022-11-04T00:22:55.299Z,87.76
2022-11-04T00:28:36.677Z,87.91
2022-11-04T00:31:23.433Z,87.88
2022-11-04T00:33:51.438Z,88.07
2022-11-04T00:36:18.180Z,87.83
2022-11-04T00:38:45.083Z,87.71
2022-11-04T00:41:27.504Z,87.73
2022-11-04T00:43:55.528Z,87.77
2022-11-04T00:46:22.245Z,87.59
2022-11-04T00:48:49.428Z,87.68
2022-11-04T00:51:16.031Z,87.66
2022-11-04T00:53:42.759Z,87.75
2022-11-04T00:56:09.335Z,88.04
2022-11-04T00:58:36.023Z,88.19
2022-11-04T01:01:07.661Z,88.28
2022-11-04T01:03:34.280Z,88.08
2022-11-04T01:06:01.002Z,87.66
2022-11-04T01:08:27.648Z,87.51
2022-11-04T01:10:54.256Z,87.61
2022-11-04T01:13:21.769Z,87.45
2022-11-04T01:15:48.333Z,87.39
2022-11-04T01:18:16.275Z,87.49
2022-11-04T01:20:42.855Z,87.36
2022-11-04T01:23:10.231Z,87.30
2022-11-04T01:25:41.528Z,87.20
2022-11-04T01:28:09.069Z,87.02
2022-11-04T01:30:38.203Z,86.62
2022-11-04T01:33:04.731Z,86.64
2022-11-04T01:35:31.612Z,86.45
2022-11-04T01:37:58.655Z,86.10
2022-11-04T01:40:25.186Z,85.93
2022-11-04T01:42:51.819Z,85.80
2022-11-04T01:45:19.862Z,85.72
2022-11-04T01:47:49.151Z,85.31
2022-11-04T01:50:17.191Z,85.37
2022-11-04T01:52:55.736Z,85.22
2022-11-04T01:55:42.890Z,85.31
2022-11-04T01:58:13.596Z,85.63
2022-11-04T02:00:40.679Z,85.34
2022-11-04T02:03:12.588Z,85.43
2022-11-04T02:05:39.191Z,85.29
2022-11-04T02:08:06.975Z,85.31
2022-11-04T02:10:33.519Z,85.24
2022-11-04T02:13:01.977Z,85.08
2022-11-04T02:15:34.333Z,85.08
2022-11-04T02:18:13.118Z,84.98
2022-11-04T02:20:51.985Z,84.66
2022-11-04T02:23:30.731Z,84.93
2022-11-04T02:26:33.110Z,85.01
2022-11-04T02:29:02.607Z,85.14
2022-11-04T02:31:38.339Z,85.03
2022-11-04T02:34:10.502Z,85.14
2022-11-04T02:36:58.515Z,85.27
2022-11-04T02:39:25.045Z,85.28
2022-11-04T02:41:57.256Z,85.11
2022-11-04T02:44:38.494Z,84.82
2022-11-04T02:47:07.897Z,84.63
2022-11-04T02:49:43.837Z,84.69
2022-11-04T02:52:12.455Z,84.77
2022-11-04T02:54:44.090Z,84.66
2022-11-04T02:57:13.938Z,84.64
2022-11-04T03:00:09.782Z,84.86
2022-11-04T03:02:49.996Z,85.14
2022-11-04T03:05:18.869Z,85.35
2022-11-04T03:07:48.012Z,85.36
2022-11-04T03:10:16.778Z,85.51
2022-11-04T03:12:48.181Z,85.84
2022-11-04T03:15:19.126Z,85.85
2022-11-04T03:18:00.672Z,85.80
2022-11-04T03:20:28.692Z,85.63
2022-11-04T03:22:59.780Z,85.65
2022-11-04T03:25:28.701Z,85.75
2022-11-04T03:28:13.567Z,85.76
2022-11-04T03:30:43.331Z,85.88
2022-11-04T03:33:10.292Z,85.88
2022-11-04T03:35:37.217Z,85.65
2022-11-04T03:38:03.818Z,85.63
2022-11-04T03:40:30.548Z,85.70
2022-11-04T03:43:00.223Z,85.72
2022-11-04T03:45:26.967Z,86.03
2022-11-04T03:47:53.642Z,86.05
2022-11-04T03:50:26.226Z,86.09
2022-11-04T03:52:53.054Z,86.37
2022-11-04T03:55:19.706Z,86.39
2022-11-04T03:57:50.782Z,86.37
2022-11-04T04:00:18.823Z,86.38
2022-11-04T04:02:45.375Z,86.26
2022-11-04T04:05:20.954Z,86.46
2022-11-04T04:07:53.773Z,86.43
2022-11-04T04:10:43.091Z,86.42
2022-11-04T04:13:19.031Z,86.59
2022-11-04T04:15:48.838Z,87.05
2022-11-04T04:18:17.702Z,86.98
2022-11-04T04:20:47.872Z,87.01
2022-11-04T04:23:38.723Z,87.28
2022-11-04T04:26:25.512Z,87.17
2022-11-04T04:28:53.337Z,87.02
2022-11-04T04:31:39.209Z,86.77
2022-11-04T04:34:06.508Z,86.95
2022-11-04T04:36:35.035Z,86.93
2022-11-04T04:39:23.879Z,86.91
2022-11-04T04:42:08.839Z,87.29
2022-11-04T04:44:54.080Z,87.13
2022-11-04T04:47:22.508Z,87.16
2022-11-04T04:49:49.895Z,87.27
2022-11-04T04:52:16.542Z,87.30
2022-11-04T04:54:45.049Z,87.30
2022-11-04T04:57:11.764Z,87.41
2022-11-04T04:59:38.850Z,87.36
2022-11-04T05:02:06.513Z,87.45
2022-11-04T05:04:33.837Z,87.40
2022-11-04T05:07:01.308Z,87.51
2022-11-04T05:09:28.686Z,87.54
2022-11-04T05:11:55.327Z,87.54
2022-11-04T05:14:21.904Z,87.83
2022-11-04T05:16:48.430Z,87.84
2022-11-04T05:19:15.024Z,87.96
2022-11-04T05:21:41.670Z,88.13
2022-11-04T05:24:08.323Z,88.20
2022-11-04T05:26:34.904Z,88.05
2022-11-04T05:29:02.463Z,88.02
2022-11-04T05:31:31.208Z,87.69
2022-11-04T05:33:59.847Z,87.81
2022-11-04T05:36:26.414Z,87.92
2022-11-04T05:38:56.206Z,87.67
2022-11-04T05:41:26.077Z,87.88
2022-11-04T05:43:53.605Z,87.95
2022-11-04T05:46:20.551Z,87.89
2022-11-04T05:48:47.376Z,87.88
2022-11-04T05:51:15.034Z,87.85
2022-11-04T05:53:42.285Z,87.88
2022-11-04T05:56:09.546Z,87.95
2022-11-04T05:58:36.484Z,87.98
2022-11-04T06:01:22.065Z,88.03
2022-11-04T06:03:48.842Z,88.16
2022-11-04T06:06:15.459Z,88.17
2022-11-04T06:08:45.165Z,88.44
2022-11-04T06:11:12.636Z,88.87
2022-11-04T06:13:42.019Z,89.08
2022-11-04T06:16:11.768Z,89.33
2022-11-04T06:18:40.467Z,89.38
2022-11-04T06:21:25.471Z,89.81
2022-11-04T06:23:53.959Z,89.97
2022-11-04T06:26:27.883Z,89.68
2022-11-04T06:28:55.633Z,89.89
2022-11-04T06:31:22.398Z,90.19
2022-11-04T06:33:49.220Z,90.32
2022-11-04T06:36:16.478Z,90.72
2022-11-04T06:38:43.643Z,90.95
2022-11-04T06:41:14.603Z,91.09
2022-11-04T06:43:41.146Z,91.44
2022-11-04T06:46:23.483Z,91.71
2022-11-04T06:48:50.166Z,92.15
2022-11-04T06:51:16.749Z,92.60
2022-11-04T06:53:43.274Z,92.67
2022-11-04T06:56:10.139Z,92.98
2022-11-04T06:58:36.667Z,92.93
2022-11-04T07:01:07.472Z,92.98
2022-11-04T07:03:39.630Z,93.01
2022-11-04T07:06:07.428Z,93.16
2022-11-04T07:08:34.138Z,93.05
2022-11-04T07:11:01.093Z,93.09
2022-11-04T07:13:27.691Z,93.13
2022-11-04T07:15:54.341Z,93.06
2022-11-04T07:18:21.070Z,93.05
2022-11-04T07:20:47.766Z,93.19
2022-11-04T07:23:14.354Z,93.21
2022-11-04T07:25:40.882Z,93.27
2022-11-04T07:28:07.728Z,93.35
2022-11-04T07:30:34.543Z,93.30
2022-11-04T07:33:01.289Z,93.43
2022-11-04T07:35:27.844Z,93.38
2022-11-04T07:37:55.129Z,93.25
2022-11-04T07:40:21.750Z,92.96
2022-11-04T07:42:48.300Z,92.64
2022-11-04T07:45:17.619Z,92.02
2022-11-04T07:47:44.214Z,92.13
2022-11-04T07:50:11.647Z,91.87
2022-11-04T07:52:38.653Z,91.71
2022-11-04T07:55:05.720Z,91.96
2022-11-04T07:57:32.293Z,91.56
2022-11-04T07:59:58.881Z,91.42
2022-11-04T08:02:28.748Z,90.72
2022-11-04T08:04:57.828Z,90.58
2022-11-04T08:07:24.634Z,90.43
2022-11-04T08:09:51.170Z,90.38
2022-11-04T08:12:17.811Z,90.21
2022-11-04T08:14:44.335Z,90.48
2022-11-04T08:17:10.990Z,90.26
2022-11-04T08:19:37.563Z,90.10
2022-11-04T08:22:04.133Z,90.13
2022-11-04T08:24:30.679Z,90.27
2022-11-04T08:26:57.217Z,90.56
2022-11-04T08:29:23.986Z,90.58
2022-11-04T08:31:50.815Z,91.02
2022-11-04T08:34:18.526Z,90.86
2022-11-04T08:36:45.783Z,90.90
2022-11-04T08:39:12.977Z,90.95
2022-11-04T08:41:41.495Z,91.11
2022-11-04T08:44:08.164Z,92.00
2022-11-04T08:46:37.561Z,91.54
2022-11-04T08:49:09.462Z,91.34
2022-11-04T08:51:39.265Z,91.62
2022-11-04T08:54:06.640Z,90.90
2022-11-04T08:56:35.565Z,90.49
2022-11-04T08:59:03.050Z,90.53
2022-11-04T09:01:35.362Z,90.79
2022-11-04T09:04:03.007Z,91.19
2022-11-04T09:06:32.527Z,91.71
2022-11-04T09:09:03.864Z,92.61
2022-11-04T09:11:31.913Z,92.51
2022-11-04T09:13:59.681Z,92.45
2022-11-04T09:16:26.924Z,92.40
2022-11-04T09:18:53.489Z,92.51
2022-11-04T09:21:20.075Z,92.69
2022-11-04T09:23:46.748Z,92.75
2022-11-04T09:26:15.133Z,92.85
2022-11-04T09:28:42.248Z,93.18
2022-11-04T09:31:10.851Z,93.39
2022-11-04T09:33:37.537Z,93.77
2022-11-04T09:36:04.393Z,93.99
2022-11-04T09:38:31.283Z,93.85
2022-11-04T09:40:59.268Z,93.83
2022-11-04T09:43:35.089Z,94.04
2022-11-04T09:46:02.632Z,94.01
2022-11-04T09:48:34.303Z,93.81
2022-11-04T09:51:04.039Z,94.05
2022-11-04T09:53:38.433Z,94.33
2022-11-04T09:56:10.501Z,94.49
2022-11-04T09:58:38.190Z,95.07
2022-11-04T10:01:11.762Z,94.91
2022-11-04T10:03:48.837Z,94.62
2022-11-04T10:06:31.885Z,94.84
2022-11-04T10:09:10.732Z,94.48
2022-11-04T10:11:42.877Z,93.90
2022-11-04T10:14:34.275Z,93.18
2022-11-04T10:17:06.713Z,92.83
2022-11-04T10:19:33.236Z,92.93
2022-11-04T10:22:03.605Z,92.82
2022-11-04T10:24:30.140Z,92.66
2022-11-04T10:27:01.052Z,92.43
2022-11-04T10:29:34.223Z,92.50
2022-11-04T10:32:03.000Z,92.85
2022-11-04T10:34:34.941Z,93.20
2022-11-04T10:37:02.184Z,93.13
2022-11-04T10:39:36.110Z,93.04
2022-11-04T10:42:04.499Z,92.53
2022-11-04T10:44:35.465Z,92.86
2022-11-04T10:47:20.632Z,93.40
2022-11-04T10:50:14.084Z,93.75
2022-11-04T10:52:37.804Z,94.46
2022-11-04T10:55:14.336Z,94.59
2022-11-04T10:57:41.833Z,94.74
2022-11-04T11:00:08.828Z,95.02
2022-11-04T11:02:41.704Z,95.20
2022-11-04T11:05:17.783Z,95.46
2022-11-04T11:07:45.046Z,95.95
2022-11-04T11:10:21.871Z,95.96
2022-11-04T11:12:56.387Z,96.04
2022-11-04T11:15:30.177Z,96.12
2022-11-04T11:18:05.928Z,96.31
2022-11-04T11:20:33.577Z,96.39
2022-11-04T11:23:05.214Z,96.26
2022-11-04T11:25:33.092Z,96.38
2022-11-04T11:27:59.808Z,96.24
2022-11-04T11:30:32.076Z,96.24
2022-11-04T11:33:03.925Z,96.33
2022-11-04T11:35:41.410Z,96.44
2022-11-04T11:38:19.186Z,96.57
2022-11-04T11:41:03.816Z,96.70
2022-11-04T11:43:35.732Z,96.98
2022-11-04T11:46:03.449Z,97.18
2022-11-04T11:48:40.486Z,97.31
2022-11-04T11:51:07.514Z,97.47
2022-11-04T11:53:38.365Z,97.56
2022-11-04T11:56:23.523Z,97.61
2022-11-04T12:01:47.123Z,98.08
2022-11-04T12:10:01.697Z,98.55
2022-11-04T12:12:28.292Z,98.61
2022-11-04T12:15:15.141Z,98.81
2022-11-04T12:17:54.333Z,98.87
2022-11-04T12:20:20.955Z,99.02
2022-11-04T12:22:47.679Z,98.96
2022-11-04T12:25:20.499Z,99.09
2022-11-04T12:28:04.303Z,99.19
2022-11-04T12:30:38.207Z,99.27
2022-11-04T12:33:08.500Z,99.16
2022-11-04T12:35:44.059Z,99.21
2022-11-04T12:38:13.528Z,99.20
2022-11-04T12:40:41.705Z,99.11
2022-11-04T12:43:26.650Z,99.21
2022-11-04T12:45:59.663Z,99.45
2022-11-04T12:48:36.131Z,99.33
2022-11-04T12:51:02.807Z,99.40
2022-11-04T12:53:40.116Z,99.57
2022-11-04T12:56:10.969Z,99.60
2022-11-04T12:58:37.480Z,99.71
2022-11-04T13:01:15.075Z,99.67
2022-11-04T13:03:53.831Z,99.71
2022-11-04T13:06:39.057Z,99.82
2022-11-04T13:09:09.365Z,99.88
2022-11-04T13:11:35.882Z,100.00
2022-11-04T13:14:06.478Z,100.00
2022-11-04T13:16:36.205Z,100.00
2022-11-04T13:19:03.125Z,100.00
2022-11-04T13:21:32.169Z,100.00
2022-11-04T13:23:59.137Z,100.00
2022-11-04T13:26:26.055Z,100.00
2022-11-04T13:29:03.083Z,100.00
2022-11-04T13:31:41.918Z,100.00
2022-11-04T13:34:08.531Z,100.00
2022-11-04T13:36:38.265Z,100.00
2022-11-04T13:39:12.321Z,100.00
2022-11-04T13:41:57.906Z,100.00
2022-11-04T13:44:36.529Z,100.00
2022-11-04T13:47:06.102Z,100.00
2022-11-04T13:49:34.473Z,100.00
2022-11-04T13:52:01.150Z,100.00
2022-11-04T13:54:31.797Z,100.00
2022-11-04T13:57:06.289Z,100.00
2022-11-04T13:59:33.537Z,100.00
2022-11-04T14:02:12.445Z,100.00
2022-11-04T14:08:26.565Z,100.00
2022-11-04T14:14:42.521Z,100.00
2022-11-04T14:17:28.251Z,100.00
2022-11-04T14:20:09.120Z,100.00
2022-11-04T14:22:56.061Z,100.00
2022-11-04T14:25:31.372Z,100.00
2022-11-04T14:27:59.917Z,100.00
2022-11-04T14:30:34.953Z,100.00
2022-11-04T14:33:07.067Z,100.00
2022-11-04T14:35:34.315Z,100.00
2022-11-04T14:38:20.901Z,100.00
2022-11-04T14:40:49.975Z,100.00
2022-11-04T14:43:29.101Z,100.00
2022-11-04T14:45:56.056Z,100.00
2022-11-04T14:48:23.039Z,100.00
2022-11-04T14:50:51.812Z,100.00
2022-11-04T14:53:38.664Z,100.00
2022-11-04T14:56:06.612Z,100.00
2022-11-04T14:58:33.220Z,100.00
2022-11-04T15:01:01.142Z,100.00
2022-11-04T15:06:34.889Z,100.00
2022-11-04T15:09:20.521Z,100.00
2022-11-04T15:12:05.955Z,100.00
2022-11-04T15:14:32.500Z,100.00
2022-11-04T15:16:59.138Z,100.00
2022-11-04T15:19:29.136Z,100.00
2022-11-04T15:21:56.007Z,100.00
2022-11-04T15:24:23.208Z,100.00
2022-11-04T15:26:51.655Z,100.00
2022-11-04T15:29:19.116Z,100.00
2022-11-04T15:31:59.514Z,100.00
2022-11-04T15:34:26.808Z,100.00
2022-11-04T15:36:57.750Z,100.00
2022-11-04T15:39:27.218Z,100.00
2022-11-04T15:42:21.604Z,100.00
2022-11-04T15:44:53.004Z,100.00
2022-11-04T15:47:20.019Z,100.00
2022-11-04T15:49:47.571Z,100.00
2022-11-04T15:52:17.174Z,100.00
2022-11-04T15:54:45.856Z,100.00
2022-11-04T15:57:12.832Z,100.00
2022-11-04T15:59:40.370Z,100.00
2022-11-04T16:02:18.255Z,100.00
2022-11-04T16:04:49.085Z,100.00
2022-11-04T16:07:15.923Z,99.88
2022-11-04T16:09:48.310Z,99.90
2022-11-04T16:12:16.600Z,99.23
2022-11-04T16:14:50.674Z,99.09
2022-11-04T16:17:17.653Z,98.94
2022-11-04T16:20:04.232Z,98.58
2022-11-04T16:22:32.580Z,98.45
2022-11-04T16:25:00.796Z,98.50
2022-11-04T16:27:28.049Z,98.15
2022-11-04T16:30:14.831Z,98.16
2022-11-04T16:32:48.669Z,97.89
2022-11-04T16:35:17.770Z,97.71
2022-11-04T16:37:44.626Z,97.69
2022-11-04T16:40:11.659Z,97.62
2022-11-04T16:42:38.274Z,97.73
2022-11-04T16:45:06.723Z,97.18
2022-11-04T16:47:36.013Z,97.55
2022-11-04T16:50:02.627Z,97.27
2022-11-04T16:52:30.541Z,97.00
2022-11-04T16:54:57.222Z,96.76
2022-11-04T16:57:24.397Z,96.59
2022-11-04T16:59:51.255Z,96.74
2022-11-04T17:02:21.131Z,96.86
2022-11-04T17:04:48.055Z,96.88
2022-11-04T17:07:14.784Z,96.66
2022-11-04T17:09:41.351Z,96.79
2022-11-04T17:12:08.114Z,96.94
2022-11-04T17:14:35.148Z,96.79
2022-11-04T17:17:02.134Z,96.76
2022-11-04T17:19:34.262Z,96.39
2022-11-04T17:22:02.958Z,96.63
2022-11-04T17:24:30.250Z,97.16
2022-11-04T17:26:57.083Z,96.64
2022-11-04T17:29:23.655Z,97.03
2022-11-04T17:31:50.154Z,96.76
2022-11-04T17:34:16.756Z,96.86
2022-11-04T17:36:43.294Z,96.82
2022-11-04T17:39:09.911Z,96.94
2022-11-04T17:41:54.879Z,96.43
2022-11-04T17:44:21.414Z,96.25
2022-11-04T17:46:48.868Z,96.28
2022-11-04T17:49:16.589Z,96.07
2022-11-04T17:51:47.677Z,95.75
2022-11-04T17:54:14.489Z,96.23
2022-11-04T17:56:41.317Z,96.33
2022-11-04T17:59:08.054Z,95.08
2022-11-04T18:01:35.744Z,95.08
2022-11-04T18:04:02.771Z,94.78
2022-11-04T18:06:30.719Z,95.20
2022-11-04T18:08:57.802Z,94.71
2022-11-04T18:11:44.147Z,94.67
2022-11-04T18:14:16.298Z,94.88
2022-11-04T18:16:44.457Z,94.50
2022-11-04T18:19:11.037Z,94.70
2022-11-04T18:21:37.732Z,94.63
2022-11-04T18:24:04.528Z,94.83
2022-11-04T18:26:31.258Z,94.71
2022-11-04T18:28:58.143Z,94.01
2022-11-04T18:31:28.773Z,93.33
2022-11-04T18:33:57.821Z,92.82
2022-11-04T18:36:24.462Z,92.48
2022-11-04T18:38:50.985Z,91.34
2022-11-04T18:41:17.932Z,90.26
2022-11-04T18:43:44.624Z,90.05
2022-11-04T18:46:12.133Z,89.40
2022-11-04T18:48:39.118Z,90.00
2022-11-04T18:51:07.633Z,89.51
2022-11-04T18:53:34.944Z,89.12
2022-11-04T18:56:05.641Z,87.91
2022-11-04T18:58:36.227Z,88.02
2022-11-04T19:01:07.783Z,88.36
2022-11-04T19:03:35.410Z,88.24
2022-11-04T19:06:09.294Z,87.17
2022-11-04T19:08:35.907Z,86.56
2022-11-04T19:11:08.795Z,87.40
2022-11-04T19:13:35.358Z,88.73
2022-11-04T19:16:06.220Z,88.48
2022-11-04T19:18:32.755Z,87.94
2022-11-04T19:21:03.479Z,87.58
2022-11-04T19:23:31.073Z,87.49
2022-11-04T19:26:02.060Z,86.76
2022-11-04T19:28:40.720Z,87.07
2022-11-04T19:31:15.848Z,87.26
2022-11-04T19:33:43.814Z,86.64
2022-11-04T19:36:11.590Z,86.68
2022-11-04T19:38:38.716Z,86.05
2022-11-04T19:41:06.890Z,85.87
2022-11-04T19:43:33.714Z,85.69
2022-11-04T19:46:04.222Z,85.12
2022-11-04T19:48:31.434Z,84.74
2022-11-04T19:50:58.061Z,85.93
2022-11-04T19:53:24.619Z,86.27
2022-11-04T19:55:54.182Z,87.25
2022-11-04T19:58:22.448Z,86.62
2022-11-04T20:00:49.854Z,86.55
2022-11-04T20:03:16.556Z,86.86
2022-11-04T20:05:45.034Z,86.63
2022-11-04T20:08:14.760Z,86.12
2022-11-04T20:10:43.255Z,85.96
2022-11-04T20:13:37.188Z,86.57
2022-11-04T20:16:12.511Z,86.64
2022-11-04T20:18:39.431Z,86.20
2022-11-04T20:21:06.076Z,87.04
2022-11-04T20:23:32.851Z,86.52
2022-11-04T20:26:07.088Z,86.34
2022-11-04T20:28:33.746Z,86.49
2022-11-04T20:31:00.326Z,86.79
2022-11-04T20:33:26.950Z,85.64
2022-11-04T20:35:53.635Z,84.68
2022-11-04T20:38:20.212Z,84.74
2022-11-04T20:40:48.339Z,84.95
2022-11-04T20:43:14.890Z,84.48
2022-11-04T20:45:41.541Z,83.28
2022-11-04T20:48:08.400Z,82.60
2022-11-04T20:50:35.821Z,81.92
2022-11-04T20:53:02.440Z,81.41
2022-11-04T20:55:28.989Z,83.23
2022-11-04T20:57:55.534Z,82.80
2022-11-04T21:00:23.448Z,82.16
2022-11-04T21:02:50.484Z,81.63
2022-11-04T21:05:17.159Z,82.29
2022-11-04T21:07:45.346Z,81.01
2022-11-04T21:10:11.965Z,81.93
2022-11-04T21:12:38.470Z,82.02
2022-11-04T21:15:25.223Z,82.12
2022-11-04T21:17:51.759Z,82.55
2022-11-04T21:20:18.348Z,82.62
2022-11-04T21:22:44.812Z,84.48
2022-11-04T21:25:11.354Z,84.51
2022-11-04T21:27:37.841Z,85.00
2022-11-04T21:30:06.626Z,84.08
2022-11-04T21:32:33.198Z,84.92
2022-11-04T21:34:59.763Z,84.93
2022-11-04T21:37:26.306Z,84.21
2022-11-04T21:39:52.815Z,85.29
2022-11-04T21:42:19.352Z,83.74
2022-11-04T21:44:45.906Z,84.48
2022-11-04T21:47:12.625Z,84.98
2022-11-04T21:49:39.161Z,85.82
2022-11-04T21:52:05.910Z,85.80
2022-11-04T21:54:32.644Z,85.61
2022-11-04T21:56:59.192Z,85.67
2022-11-04T21:59:25.773Z,85.77
2022-11-04T22:01:53.127Z,85.75
2022-11-04T22:04:19.693Z,85.72
2022-11-04T22:06:47.118Z,85.87
2022-11-04T22:09:13.816Z,86.48
2022-11-04T22:11:40.383Z,86.55
2022-11-04T22:14:08.428Z,86.54
2022-11-04T22:16:36.055Z,86.56
2022-11-04T22:19:03.921Z,86.16
2022-11-04T22:21:31.252Z,86.63
2022-11-04T22:23:58.408Z,87.22
2022-11-04T22:26:26.336Z,87.22
2022-11-04T22:28:53.320Z,88.16
2022-11-04T22:31:19.802Z,87.15
2022-11-04T22:33:46.431Z,86.59
2022-11-04T22:36:13.845Z,87.41
2022-11-04T22:38:41.661Z,87.46
2022-11-04T22:41:09.499Z,87.43
2022-11-04T22:43:36.341Z,87.57
2022-11-04T22:46:05.048Z,87.42
2022-11-04T22:48:31.570Z,87.47
2022-11-04T22:51:00.994Z,88.57
2022-11-04T22:53:27.513Z,88.67
2022-11-04T22:55:58.160Z,88.26
2022-11-04T22:58:24.785Z,87.17
2022-11-04T23:00:58.565Z,87.28
2022-11-04T23:03:25.374Z,86.93
2022-11-04T23:05:56.346Z,87.28
2022-11-04T23:08:23.762Z,87.80
2022-11-04T23:11:09.384Z,87.71
2022-11-04T23:13:54.688Z,87.98
2022-11-04T23:16:40.452Z,87.86
2022-11-04T23:19:06.905Z,87.93
2022-11-04T23:21:52.210Z,88.21
2022-11-04T23:24:37.303Z,88.05
2022-11-04T23:27:03.900Z,87.95
2022-11-04T23:29:49.142Z,88.33
2022-11-04T23:32:15.671Z,88.71
2022-11-04T23:35:00.952Z,88.58
2022-11-04T23:37:30.617Z,87.99
2022-11-04T23:39:57.284Z,88.73
2022-11-04T23:42:23.792Z,88.34
2022-11-04T23:45:13.296Z,88.56
2022-11-04T23:48:00.095Z,88.40
2022-11-04T23:50:46.322Z,87.98
2022-11-04T23:53:32.378Z,88.15
2022-11-04T23:56:17.717Z,88.67
2022-11-04T23:59:02.803Z,88.75
